VEGTVNKT

Guest
Details From VEGT - Guwahati Intl
To VNKT - Kathmandu Tribhuvan Intl
Flight Number -
Tags Generated
Created
Modified
Stats Distance 347 nm / 642 km
Max Altitude 0 ft / 0 m
Waypoints 3
Social Downloads 1
Likes 0
Share VATSIM

Download

Looking for another format? Having issues loading an existing format? Contact us
Advertisement - Login to hide

Notes

Generated

Route

VEGT LNC14 VNKT

ID Type Via Altitude Latitude Longitude Leg Dist Tot Dist Heading (true) Name
O VEGT APT - 0 ft / 0 m 26.09467˚ 91.58063˚ - 0 nm - -
LNC14 FIX - 0 ft / 0 m 27.60500˚ 85.71667˚ 326 nm 326 nm 287° / 285° -
O VNKT APT - 0 ft / 0 m 27.68381˚ 85.35342˚ 19 nm 346 nm 284° / 284° -

Altitude Profile

Advertisement - Login to hide

Weather


0- 5 10 15 20 25 30 35+ Temperature / ° C

Clouds and Precipitation
Forecast for 2017-12-15 12:00 UTC. Updated an hour ago

Ground ~20,000 ft ~40,000 ft Winds

VEGT

Details ICAO VEGT (GAU)
Name GUWAHATI INTL
Region India
Timezone Asia/Kolkata (UTC+5.5)
Stats Elevation 162 ft / 49 m (AMSL)
Location 26.106091° 91.585940°
Runways 1
Magnetic Variation 0.159° W

METAR

VEGT 151200Z 14002KT 1500 BR FEW018 22/20 Q1015 NOSIG

Decode

TAF

Not found

Departure Runways

ID Width Length Bearing (true) Bearing (mag) Surface Threshold Offset Overrun Length
02 150 ft / 46 m 9,028 ft / 2,752 m 22.66° 22.82° Asphalt 0 ft / 0 m 0 ft / 0 m
20 150 ft / 46 m 9,028 ft / 2,752 m 202.66° 202.82° Asphalt 0 ft / 0 m 0 ft / 0 m

VNKT

Details ICAO VNKT (KTM)
Name Kathmandu Tribhuvan Intl
Region Nepal
Timezone Asia/Kathmandu (UTC+5.8)
Stats Elevation 4,390 ft / 1,338 m (AMSL)
Location 27.696583° 85.359100°
Runways 1
Magnetic Variation 0.492° E

METAR

VNKT 151220Z VRB02KT 210V300 7000 FEW020 15/03 Q1020 NOSIG

Decode

TAF

TAF VNKT 151100Z 1512/1612 28004KT 8000 FEW020 BECMG 1514/1515 VRB02KT 6000 FEW015 BECMG 1601/1602 00000KT 3000 BR FEW010 PROB30 1601/1603 2000 BR BECMG 1605/1606 12005KT 5000 HZ FEW015 BECMG 1607/1608 29008KT 8000 FEW020

Decode

Destination Runways

ID Width Length Bearing (true) Bearing (mag) Surface Threshold Offset Overrun Length
02 148 ft / 45 m 10,017 ft / 3,053 m 21.50° 21.01° Asphalt 0 ft / 0 m 0 ft / 0 m
20 148 ft / 45 m 10,017 ft / 3,053 m 201.51° 201.02° Asphalt 400 ft / 122 m 0 ft / 0 m

Popular Alternatives